sensor_id;sensor_type;location;lat;lon;timestamp;temperature;humidity
40622;DHT22;26324;52.040;11.528;2023-02-11T00:01:12;3.00;82.40
40622;DHT22;26324;52.040;11.528;2023-02-11T00:03:42;3.00;82.50
40622;DHT22;26324;52.040;11.528;2023-02-11T00:06:10;3.00;82.40
40622;DHT22;26324;52.040;11.528;2023-02-11T00:08:38;3.10;82.20
40622;DHT22;26324;52.040;11.528;2023-02-11T00:11:05;3.10;82.20
40622;DHT22;26324;52.040;11.528;2023-02-11T00:13:32;3.10;82.10
40622;DHT22;26324;52.040;11.528;2023-02-11T00:16:08;3.10;82.00
40622;DHT22;26324;52.040;11.528;2023-02-11T00:18:36;3.20;81.90
40622;DHT22;26324;52.040;11.528;2023-02-11T00:21:11;3.30;81.70
40622;DHT22;26324;52.040;11.528;2023-02-11T00:23:38;3.40;81.40
40622;DHT22;26324;52.040;11.528;2023-02-11T00:26:14;3.60;81.20
40622;DHT22;26324;52.040;11.528;2023-02-11T00:28:42;3.80;80.90
40622;DHT22;26324;52.040;11.528;2023-02-11T00:31:10;4.00;80.20
40622;DHT22;26324;52.040;11.528;2023-02-11T00:33:38;4.30;79.50
40622;DHT22;26324;52.040;11.528;2023-02-11T00:36:08;4.50;78.80
40622;DHT22;26324;52.040;11.528;2023-02-11T00:38:37;4.60;78.30
40622;DHT22;26324;52.040;11.528;2023-02-11T00:41:05;4.70;77.80
40622;DHT22;26324;52.040;11.528;2023-02-11T00:43:32;4.80;77.60
40622;DHT22;26324;52.040;11.528;2023-02-11T00:45:59;4.80;77.40
40622;DHT22;26324;52.040;11.528;2023-02-11T00:48:27;4.90;77.30
40622;DHT22;26324;52.040;11.528;2023-02-11T00:50:54;4.90;77.30
40622;DHT22;26324;52.040;11.528;2023-02-11T00:53:21;4.90;77.50
40622;DHT22;26324;52.040;11.528;2023-02-11T00:55:48;4.90;77.50
40622;DHT22;26324;52.040;11.528;2023-02-11T00:58:16;5.00;77.60
40622;DHT22;26324;52.040;11.528;2023-02-11T01:00:43;5.00;77.70
40622;DHT22;26324;52.040;11.528;2023-02-11T01:03:12;5.00;77.70
40622;DHT22;26324;52.040;11.528;2023-02-11T01:05:39;5.00;77.60
40622;DHT22;26324;52.040;11.528;2023-02-11T01:08:08;5.10;77.30
40622;DHT22;26324;52.040;11.528;2023-02-11T01:10:36;5.00;77.60
40622;DHT22;26324;52.040;11.528;2023-02-11T01:13:03;5.00;77.90
40622;DHT22;26324;52.040;11.528;2023-02-11T01:15:32;5.00;77.90
40622;DHT22;26324;52.040;11.528;2023-02-11T01:17:59;5.00;78.10
40622;DHT22;26324;52.040;11.528;2023-02-11T01:20:27;5.00;78.10
40622;DHT22;26324;52.040;11.528;2023-02-11T01:22:56;5.00;78.20
40622;DHT22;26324;52.040;11.528;2023-02-11T01:25:23;5.00;78.20
40622;DHT22;26324;52.040;11.528;2023-02-11T01:27:50;4.90;78.60
40622;DHT22;26324;52.040;11.528;2023-02-11T01:30:17;4.90;78.80
40622;DHT22;26324;52.040;11.528;2023-02-11T01:32:46;4.80;79.00
40622;DHT22;26324;52.040;11.528;2023-02-11T01:35:13;4.80;79.10
40622;DHT22;26324;52.040;11.528;2023-02-11T01:37:41;4.80;79.20
40622;DHT22;26324;52.040;11.528;2023-02-11T01:40:13;4.80;79.30
40622;DHT22;26324;52.040;11.528;2023-02-11T01:42:41;4.80;79.40
40622;DHT22;26324;52.040;11.528;2023-02-11T01:51:01;4.80;79.70
40622;DHT22;26324;52.040;11.528;2023-02-11T01:53:29;4.80;79.80
40622;DHT22;26324;52.040;11.528;2023-02-11T01:56:18;4.80;79.90
40622;DHT22;26324;52.040;11.528;2023-02-11T01:59:19;4.80;80.00
40622;DHT22;26324;52.040;11.528;2023-02-11T02:01:55;4.80;80.10
40622;DHT22;26324;52.040;11.528;2023-02-11T02:04:24;4.80;80.20
40622;DHT22;26324;52.040;11.528;2023-02-11T02:07:02;4.80;80.20
40622;DHT22;26324;52.040;11.528;2023-02-11T02:09:43;4.80;80.40
40622;DHT22;26324;52.040;11.528;2023-02-11T02:12:12;4.80;80.20
40622;DHT22;26324;52.040;11.528;2023-02-11T02:14:39;4.90;80.10
40622;DHT22;26324;52.040;11.528;2023-02-11T02:17:23;4.90;79.90
40622;DHT22;26324;52.040;11.528;2023-02-11T02:20:26;4.90;79.90
40622;DHT22;26324;52.040;11.528;2023-02-11T02:37:07;4.70;80.70
40622;DHT22;26324;52.040;11.528;2023-02-11T02:39:36;4.70;81.00
40622;DHT22;26324;52.040;11.528;2023-02-11T02:42:04;4.70;81.10
40622;DHT22;26324;52.040;11.528;2023-02-11T02:44:32;4.60;81.40
40622;DHT22;26324;52.040;11.528;2023-02-11T02:47:00;4.70;81.30
40622;DHT22;26324;52.040;11.528;2023-02-11T02:49:27;4.70;81.40
40622;DHT22;26324;52.040;11.528;2023-02-11T02:52:14;4.70;81.40
40622;DHT22;26324;52.040;11.528;2023-02-11T02:57:39;4.80;81.40
40622;DHT22;26324;52.040;11.528;2023-02-11T03:09:07;4.90;81.50
40622;DHT22;26324;52.040;11.528;2023-02-11T03:11:27;4.90;81.50
40622;DHT22;26324;52.040;11.528;2023-02-11T03:13:55;4.90;81.40
40622;DHT22;26324;52.040;11.528;2023-02-11T03:16:27;5.00;81.60
40622;DHT22;26324;52.040;11.528;2023-02-11T03:18:59;5.00;81.50
40622;DHT22;26324;52.040;11.528;2023-02-11T03:21:30;5.00;81.60
40622;DHT22;26324;52.040;11.528;2023-02-11T03:24:06;5.10;81.80
40622;DHT22;26324;52.040;11.528;2023-02-11T03:26:45;5.10;81.90
40622;DHT22;26324;52.040;11.528;2023-02-11T03:34:46;5.00;82.60
40622;DHT22;26324;52.040;11.528;2023-02-11T03:37:20;5.00;82.80
40622;DHT22;26324;52.040;11.528;2023-02-11T03:39:56;5.10;83.00
40622;DHT22;26324;52.040;11.528;2023-02-11T03:42:29;5.10;82.90
40622;DHT22;26324;52.040;11.528;2023-02-11T03:45:10;5.20;82.80
40622;DHT22;26324;52.040;11.528;2023-02-11T03:47:42;5.30;82.60
40622;DHT22;26324;52.040;11.528;2023-02-11T03:50:15;5.20;82.60
40622;DHT22;26324;52.040;11.528;2023-02-11T03:52:44;5.30;82.60
40622;DHT22;26324;52.040;11.528;2023-02-11T03:55:16;5.20;82.70
40622;DHT22;26324;52.040;11.528;2023-02-11T03:57:43;5.20;82.80
40622;DHT22;26324;52.040;11.528;2023-02-11T04:00:11;5.20;82.90
40622;DHT22;26324;52.040;11.528;2023-02-11T04:02:40;5.30;82.80
40622;DHT22;26324;52.040;11.528;2023-02-11T04:05:13;5.30;82.80
40622;DHT22;26324;52.040;11.528;2023-02-11T04:07:40;5.30;82.70
40622;DHT22;26324;52.040;11.528;2023-02-11T04:10:08;5.30;82.60
40622;DHT22;26324;52.040;11.528;2023-02-11T04:12:35;5.30;82.80
40622;DHT22;26324;52.040;11.528;2023-02-11T04:15:03;5.30;83.20
40622;DHT22;26324;52.040;11.528;2023-02-11T04:17:30;5.30;83.10
40622;DHT22;26324;52.040;11.528;2023-02-11T04:19:57;5.30;83.20
40622;DHT22;26324;52.040;11.528;2023-02-11T04:22:24;5.30;83.30
40622;DHT22;26324;52.040;11.528;2023-02-11T04:24:51;5.30;83.50
40622;DHT22;26324;52.040;11.528;2023-02-11T04:27:19;5.30;83.50
40622;DHT22;26324;52.040;11.528;2023-02-11T04:29:46;5.40;83.50
40622;DHT22;26324;52.040;11.528;2023-02-11T04:32:13;5.40;83.60
40622;DHT22;26324;52.040;11.528;2023-02-11T04:34:41;5.50;83.40
40622;DHT22;26324;52.040;11.528;2023-02-11T04:37:08;5.50;83.40
40622;DHT22;26324;52.040;11.528;2023-02-11T04:39:35;5.50;83.40
40622;DHT22;26324;52.040;11.528;2023-02-11T04:42:02;5.50;83.40
40622;DHT22;26324;52.040;11.528;2023-02-11T04:44:30;5.50;83.50
40622;DHT22;26324;52.040;11.528;2023-02-11T04:46:57;5.50;83.40
40622;DHT22;26324;52.040;11.528;2023-02-11T04:49:24;5.40;83.70
40622;DHT22;26324;52.040;11.528;2023-02-11T04:51:52;5.40;83.90
40622;DHT22;26324;52.040;11.528;2023-02-11T04:54:19;5.40;84.10
40622;DHT22;26324;52.040;11.528;2023-02-11T04:56:46;5.40;84.30
40622;DHT22;26324;52.040;11.528;2023-02-11T04:59:14;5.40;84.40
40622;DHT22;26324;52.040;11.528;2023-02-11T05:01:41;5.40;84.50
40622;DHT22;26324;52.040;11.528;2023-02-11T05:04:08;5.40;84.50
40622;DHT22;26324;52.040;11.528;2023-02-11T05:06:38;5.40;84.60
40622;DHT22;26324;52.040;11.528;2023-02-11T05:09:05;5.50;84.40
40622;DHT22;26324;52.040;11.528;2023-02-11T05:11:33;5.40;84.50
40622;DHT22;26324;52.040;11.528;2023-02-11T05:14:00;5.40;84.50
40622;DHT22;26324;52.040;11.528;2023-02-11T05:16:27;5.40;84.50
40622;DHT22;26324;52.040;11.528;2023-02-11T05:18:55;5.40;84.70
40622;DHT22;26324;52.040;11.528;2023-02-11T05:21:22;5.30;84.80
40622;DHT22;26324;52.040;11.528;2023-02-11T05:23:50;5.20;85.20
40622;DHT22;26324;52.040;11.528;2023-02-11T05:26:17;5.20;85.20
40622;DHT22;26324;52.040;11.528;2023-02-11T05:28:45;5.30;84.90
40622;DHT22;26324;52.040;11.528;2023-02-11T05:31:12;5.20;85.00
40622;DHT22;26324;52.040;11.528;2023-02-11T05:33:41;5.10;85.40
40622;DHT22;26324;52.040;11.528;2023-02-11T05:36:10;5.10;85.70
40622;DHT22;26324;52.040;11.528;2023-02-11T05:39:03;5.10;86.00
40622;DHT22;26324;52.040;11.528;2023-02-11T05:41:30;5.10;86.00
40622;DHT22;26324;52.040;11.528;2023-02-11T05:43:58;5.20;86.20
40622;DHT22;26324;52.040;11.528;2023-02-11T05:46:25;5.20;86.50
40622;DHT22;26324;52.040;11.528;2023-02-11T05:48:52;5.30;86.60
40622;DHT22;26324;52.040;11.528;2023-02-11T05:51:19;5.40;86.50
40622;DHT22;26324;52.040;11.528;2023-02-11T05:53:47;5.40;86.80
40622;DHT22;26324;52.040;11.528;2023-02-11T05:56:14;5.50;86.80
40622;DHT22;26324;52.040;11.528;2023-02-11T05:58:41;5.50;86.90
40622;DHT22;26324;52.040;11.528;2023-02-11T06:01:08;5.50;87.00
40622;DHT22;26324;52.040;11.528;2023-02-11T06:03:36;5.50;87.10
40622;DHT22;26324;52.040;11.528;2023-02-11T06:06:03;5.50;87.20
40622;DHT22;26324;52.040;11.528;2023-02-11T06:08:30;5.50;87.30
40622;DHT22;26324;52.040;11.528;2023-02-11T06:10:58;5.50;87.40
40622;DHT22;26324;52.040;11.528;2023-02-11T06:13:25;5.50;87.40
40622;DHT22;26324;52.040;11.528;2023-02-11T06:15:59;5.50;87.50
40622;DHT22;26324;52.040;11.528;2023-02-11T06:18:27;5.50;87.70
40622;DHT22;26324;52.040;11.528;2023-02-11T06:20:55;5.50;87.60
40622;DHT22;26324;52.040;11.528;2023-02-11T06:23:26;5.50;87.80
40622;DHT22;26324;52.040;11.528;2023-02-11T06:26:02;5.50;87.70
40622;DHT22;26324;52.040;11.528;2023-02-11T06:28:29;5.40;87.90
40622;DHT22;26324;52.040;11.528;2023-02-11T06:31:05;5.50;88.00
40622;DHT22;26324;52.040;11.528;2023-02-11T06:33:33;5.50;87.90
40622;DHT22;26324;52.040;11.528;2023-02-11T06:36:03;5.50;88.00
40622;DHT22;26324;52.040;11.528;2023-02-11T06:38:30;5.50;87.80
40622;DHT22;26324;52.040;11.528;2023-02-11T06:40:58;5.50;87.80
40622;DHT22;26324;52.040;11.528;2023-02-11T06:43:25;5.50;87.80
40622;DHT22;26324;52.040;11.528;2023-02-11T06:45:53;5.50;87.70
40622;DHT22;26324;52.040;11.528;2023-02-11T06:48:23;5.50;88.00
40622;DHT22;26324;52.040;11.528;2023-02-11T06:50:50;5.50;87.80
40622;DHT22;26324;52.040;11.528;2023-02-11T06:53:18;5.50;87.70
40622;DHT22;26324;52.040;11.528;2023-02-11T06:55:45;5.50;87.60
40622;DHT22;26324;52.040;11.528;2023-02-11T06:58:12;5.60;87.80
40622;DHT22;26324;52.040;11.528;2023-02-11T07:00:40;5.50;87.80
40622;DHT22;26324;52.040;11.528;2023-02-11T07:03:07;5.60;87.80
40622;DHT22;26324;52.040;11.528;2023-02-11T07:05:35;5.60;87.60
40622;DHT22;26324;52.040;11.528;2023-02-11T07:08:06;5.60;87.60
40622;DHT22;26324;52.040;11.528;2023-02-11T07:10:34;5.60;87.50
40622;DHT22;26324;52.040;11.528;2023-02-11T07:13:01;5.60;87.60
40622;DHT22;26324;52.040;11.528;2023-02-11T07:15:28;5.50;87.80
40622;DHT22;26324;52.040;11.528;2023-02-11T07:17:56;5.50;87.80
40622;DHT22;26324;52.040;11.528;2023-02-11T07:20:23;5.60;87.90
40622;DHT22;26324;52.040;11.528;2023-02-11T07:22:51;5.70;87.60
40622;DHT22;26324;52.040;11.528;2023-02-11T07:25:19;5.70;87.50
40622;DHT22;26324;52.040;11.528;2023-02-11T07:27:46;5.60;87.60
40622;DHT22;26324;52.040;11.528;2023-02-11T07:30:13;5.70;87.60
40622;DHT22;26324;52.040;11.528;2023-02-11T07:32:41;5.80;87.40
40622;DHT22;26324;52.040;11.528;2023-02-11T07:35:08;5.80;87.20
40622;DHT22;26324;52.040;11.528;2023-02-11T07:37:35;5.90;87.30
40622;DHT22;26324;52.040;11.528;2023-02-11T07:40:03;5.90;87.10
40622;DHT22;26324;52.040;11.528;2023-02-11T07:42:30;5.90;87.10
40622;DHT22;26324;52.040;11.528;2023-02-11T07:44:57;5.90;87.20
40622;DHT22;26324;52.040;11.528;2023-02-11T07:47:25;5.90;87.10
40622;DHT22;26324;52.040;11.528;2023-02-11T07:49:52;6.00;87.10
40622;DHT22;26324;52.040;11.528;2023-02-11T07:52:22;6.00;87.10
40622;DHT22;26324;52.040;11.528;2023-02-11T07:54:50;6.00;86.90
40622;DHT22;26324;52.040;11.528;2023-02-11T07:57:17;6.00;86.90
40622;DHT22;26324;52.040;11.528;2023-02-11T07:59:44;6.10;86.90
40622;DHT22;26324;52.040;11.528;2023-02-11T08:02:11;6.10;86.90
40622;DHT22;26324;52.040;11.528;2023-02-11T08:04:39;6.20;86.70
40622;DHT22;26324;52.040;11.528;2023-02-11T08:07:06;6.30;86.70
40622;DHT22;26324;52.040;11.528;2023-02-11T08:09:35;6.30;86.50
40622;DHT22;26324;52.040;11.528;2023-02-11T08:12:03;6.30;86.30
40622;DHT22;26324;52.040;11.528;2023-02-11T08:14:30;6.40;86.30
40622;DHT22;26324;52.040;11.528;2023-02-11T08:16:58;6.50;86.10
40622;DHT22;26324;52.040;11.528;2023-02-11T08:19:26;6.50;86.00
40622;DHT22;26324;52.040;11.528;2023-02-11T08:21:56;6.50;85.90
40622;DHT22;26324;52.040;11.528;2023-02-11T08:24:26;6.50;85.80
40622;DHT22;26324;52.040;11.528;2023-02-11T08:26:53;6.50;85.90
40622;DHT22;26324;52.040;11.528;2023-02-11T08:29:22;6.50;85.90
40622;DHT22;26324;52.040;11.528;2023-02-11T08:31:49;6.50;85.80
40622;DHT22;26324;52.040;11.528;2023-02-11T08:34:16;6.60;85.70
40622;DHT22;26324;52.040;11.528;2023-02-11T08:36:47;6.60;85.70
40622;DHT22;26324;52.040;11.528;2023-02-11T08:39:20;6.60;85.80
40622;DHT22;26324;52.040;11.528;2023-02-11T08:41:50;6.70;85.60
40622;DHT22;26324;52.040;11.528;2023-02-11T08:44:20;6.60;85.60
40622;DHT22;26324;52.040;11.528;2023-02-11T08:46:48;6.70;85.50
40622;DHT22;26324;52.040;11.528;2023-02-11T08:49:16;6.60;85.70
40622;DHT22;26324;52.040;11.528;2023-02-11T08:51:44;6.60;85.70
40622;DHT22;26324;52.040;11.528;2023-02-11T08:54:12;6.60;85.70
40622;DHT22;26324;52.040;11.528;2023-02-11T08:56:40;6.70;85.70
40622;DHT22;26324;52.040;11.528;2023-02-11T08:59:10;6.60;85.90
40622;DHT22;26324;52.040;11.528;2023-02-11T09:01:38;6.70;85.70
40622;DHT22;26324;52.040;11.528;2023-02-11T09:04:05;6.70;85.70
40622;DHT22;26324;52.040;11.528;2023-02-11T09:06:33;6.80;85.70
40622;DHT22;26324;52.040;11.528;2023-02-11T09:09:00;6.80;85.90
40622;DHT22;26324;52.040;11.528;2023-02-11T09:11:30;6.70;85.90
40622;DHT22;26324;52.040;11.528;2023-02-11T09:13:58;6.80;85.70
40622;DHT22;26324;52.040;11.528;2023-02-11T09:16:29;6.80;85.90
40622;DHT22;26324;52.040;11.528;2023-02-11T09:18:57;6.80;85.70
40622;DHT22;26324;52.040;11.528;2023-02-11T09:21:26;6.80;85.80
40622;DHT22;26324;52.040;11.528;2023-02-11T09:23:58;6.90;85.60
40622;DHT22;26324;52.040;11.528;2023-02-11T09:26:27;6.90;85.70
40622;DHT22;26324;52.040;11.528;2023-02-11T09:28:55;6.90;85.60
40622;DHT22;26324;52.040;11.528;2023-02-11T09:31:24;6.80;85.80
40622;DHT22;26324;52.040;11.528;2023-02-11T09:33:57;6.90;86.00
40622;DHT22;26324;52.040;11.528;2023-02-11T09:36:28;6.80;86.00
40622;DHT22;26324;52.040;11.528;2023-02-11T09:38:58;6.90;86.00
40622;DHT22;26324;52.040;11.528;2023-02-11T09:44:32;7.00;85.70
40622;DHT22;26324;52.040;11.528;2023-02-11T09:47:02;7.00;85.70
40622;DHT22;26324;52.040;11.528;2023-02-11T09:55:38;7.10;85.40
40622;DHT22;26324;52.040;11.528;2023-02-11T09:58:14;7.10;85.50
40622;DHT22;26324;52.040;11.528;2023-02-11T10:00:47;7.10;85.40
40622;DHT22;26324;52.040;11.528;2023-02-11T10:03:59;7.10;85.40
40622;DHT22;26324;52.040;11.528;2023-02-11T10:06:44;7.10;85.50
40622;DHT22;26324;52.040;11.528;2023-02-11T10:12:22;7.10;85.40
40622;DHT22;26324;52.040;11.528;2023-02-11T10:18:27;7.10;85.70
40622;DHT22;26324;52.040;11.528;2023-02-11T10:21:18;7.10;85.70
40622;DHT22;26324;52.040;11.528;2023-02-11T10:23:54;7.00;86.10
40622;DHT22;26324;52.040;11.528;2023-02-11T10:26:22;7.10;86.10
40622;DHT22;26324;52.040;11.528;2023-02-11T10:28:53;7.10;86.00
40622;DHT22;26324;52.040;11.528;2023-02-11T10:31:28;7.10;86.00
40622;DHT22;26324;52.040;11.528;2023-02-11T10:34:05;7.10;85.90
40622;DHT22;26324;52.040;11.528;2023-02-11T10:36:36;7.10;86.20
40622;DHT22;26324;52.040;11.528;2023-02-11T10:39:29;7.10;86.00
40622;DHT22;26324;52.040;11.528;2023-02-11T10:42:05;7.20;85.80
40622;DHT22;26324;52.040;11.528;2023-02-11T10:44:48;7.20;85.90
40622;DHT22;26324;52.040;11.528;2023-02-11T10:47:22;7.10;86.20
40622;DHT22;26324;52.040;11.528;2023-02-11T10:49:50;7.20;85.90
40622;DHT22;26324;52.040;11.528;2023-02-11T10:52:25;7.20;86.00
40622;DHT22;26324;52.040;11.528;2023-02-11T10:57:34;7.20;86.20
40622;DHT22;26324;52.040;11.528;2023-02-11T11:02:50;7.20;85.90
40622;DHT22;26324;52.040;11.528;2023-02-11T11:05:22;7.20;86.00
40622;DHT22;26324;52.040;11.528;2023-02-11T11:08:05;7.30;86.00
40622;DHT22;26324;52.040;11.528;2023-02-11T11:13:25;7.20;86.00
40622;DHT22;26324;52.040;11.528;2023-02-11T11:18:45;7.30;86.10
40622;DHT22;26324;52.040;11.528;2023-02-11T11:21:25;7.20;86.10
40622;DHT22;26324;52.040;11.528;2023-02-11T11:23:55;7.30;86.20
40622;DHT22;26324;52.040;11.528;2023-02-11T11:26:26;7.30;86.30
40622;DHT22;26324;52.040;11.528;2023-02-11T11:29:00;7.30;86.10
40622;DHT22;26324;52.040;11.528;2023-02-11T11:31:35;7.30;86.20
40622;DHT22;26324;52.040;11.528;2023-02-11T11:34:22;7.30;86.20
40622;DHT22;26324;52.040;11.528;2023-02-11T11:36:54;7.30;86.40
40622;DHT22;26324;52.040;11.528;2023-02-11T11:39:26;7.30;86.40
40622;DHT22;26324;52.040;11.528;2023-02-11T11:41:59;7.40;86.20
40622;DHT22;26324;52.040;11.528;2023-02-11T11:44:30;7.30;86.40
40622;DHT22;26324;52.040;11.528;2023-02-11T11:47:25;7.40;86.40
40622;DHT22;26324;52.040;11.528;2023-02-11T11:52:45;7.30;86.80
40622;DHT22;26324;52.040;11.528;2023-02-11T11:55:25;7.20;87.00
40622;DHT22;26324;52.040;11.528;2023-02-11T11:57:52;7.40;86.90
40622;DHT22;26324;52.040;11.528;2023-02-11T12:00:31;7.40;86.60
40622;DHT22;26324;52.040;11.528;2023-02-11T12:03:21;7.30;86.80
40622;DHT22;26324;52.040;11.528;2023-02-11T12:08:57;7.40;86.80
40622;DHT22;26324;52.040;11.528;2023-02-11T12:21:09;7.50;86.70
40622;DHT22;26324;52.040;11.528;2023-02-11T12:26:58;7.60;86.50
40622;DHT22;26324;52.040;11.528;2023-02-11T12:30:06;7.60;86.50
40622;DHT22;26324;52.040;11.528;2023-02-11T12:32:43;7.60;86.70
40622;DHT22;26324;52.040;11.528;2023-02-11T12:35:24;7.70;86.40
40622;DHT22;26324;52.040;11.528;2023-02-11T12:38:24;7.70;86.40
40622;DHT22;26324;52.040;11.528;2023-02-11T12:41:19;7.70;86.60
40622;DHT22;26324;52.040;11.528;2023-02-11T12:44:35;7.70;86.30
40622;DHT22;26324;52.040;11.528;2023-02-11T12:55:52;7.90;85.80
40622;DHT22;26324;52.040;11.528;2023-02-11T12:58:25;8.00;85.70
40622;DHT22;26324;52.040;11.528;2023-02-11T13:01:22;8.00;85.70
40622;DHT22;26324;52.040;11.528;2023-02-11T13:03:59;8.00;85.80
40622;DHT22;26324;52.040;11.528;2023-02-11T13:06:39;8.00;85.70
40622;DHT22;26324;52.040;11.528;2023-02-11T13:09:17;8.10;85.60
40622;DHT22;26324;52.040;11.528;2023-02-11T13:11:50;8.10;85.40
40622;DHT22;26324;52.040;11.528;2023-02-11T13:14:33;8.10;85.50
40622;DHT22;26324;52.040;11.528;2023-02-11T13:17:12;8.10;85.60
40622;DHT22;26324;52.040;11.528;2023-02-11T13:19:50;8.10;85.50
40622;DHT22;26324;52.040;11.528;2023-02-11T13:22:40;8.10;85.40
40622;DHT22;26324;52.040;11.528;2023-02-11T13:25:17;8.10;85.40
40622;DHT22;26324;52.040;11.528;2023-02-11T13:28:20;8.10;85.40
40622;DHT22;26324;52.040;11.528;2023-02-11T13:30:49;8.10;85.70
40622;DHT22;26324;52.040;11.528;2023-02-11T13:33:38;8.20;85.50
40622;DHT22;26324;52.040;11.528;2023-02-11T13:36:12;8.10;85.50
40622;DHT22;26324;52.040;11.528;2023-02-11T13:38:50;8.10;85.40
40622;DHT22;26324;52.040;11.528;2023-02-11T13:41:21;8.10;85.40
40622;DHT22;26324;52.040;11.528;2023-02-11T13:43:59;8.10;85.60
40622;DHT22;26324;52.040;11.528;2023-02-11T13:46:46;8.20;85.50
40622;DHT22;26324;52.040;11.528;2023-02-11T13:49:21;8.10;85.50
40622;DHT22;26324;52.040;11.528;2023-02-11T13:51:50;8.20;85.40
40622;DHT22;26324;52.040;11.528;2023-02-11T13:54:22;8.20;85.50
40622;DHT22;26324;52.040;11.528;2023-02-11T13:59:47;8.30;85.30
40622;DHT22;26324;52.040;11.528;2023-02-11T14:02:34;8.30;85.40
40622;DHT22;26324;52.040;11.528;2023-02-11T14:05:31;8.30;85.20
40622;DHT22;26324;52.040;11.528;2023-02-11T14:08:20;8.30;85.20
40622;DHT22;26324;52.040;11.528;2023-02-11T14:14:20;8.30;85.30
40622;DHT22;26324;52.040;11.528;2023-02-11T14:19:37;8.40;84.90
40622;DHT22;26324;52.040;11.528;2023-02-11T14:22:22;8.50;84.90
40622;DHT22;26324;52.040;11.528;2023-02-11T14:24:58;8.50;84.90
40622;DHT22;26324;52.040;11.528;2023-02-11T14:27:29;8.50;85.10
40622;DHT22;26324;52.040;11.528;2023-02-11T14:33:08;8.50;84.80
40622;DHT22;26324;52.040;11.528;2023-02-11T14:35:59;8.50;84.80
40622;DHT22;26324;52.040;11.528;2023-02-11T14:38:51;8.50;84.90
40622;DHT22;26324;52.040;11.528;2023-02-11T14:41:25;8.50;84.50
40622;DHT22;26324;52.040;11.528;2023-02-11T14:43:58;8.50;84.70
40622;DHT22;26324;52.040;11.528;2023-02-11T14:46:27;8.50;84.60
40622;DHT22;26324;52.040;11.528;2023-02-11T14:49:02;8.50;84.70
40622;DHT22;26324;52.040;11.528;2023-02-11T14:51:34;8.50;84.70
40622;DHT22;26324;52.040;11.528;2023-02-11T14:54:16;8.50;84.80
40622;DHT22;26324;52.040;11.528;2023-02-11T14:56:45;8.50;84.80
40622;DHT22;26324;52.040;11.528;2023-02-11T14:59:21;8.50;84.90
40622;DHT22;26324;52.040;11.528;2023-02-11T15:01:51;8.40;85.10
40622;DHT22;26324;52.040;11.528;2023-02-11T15:04:27;8.40;85.20
40622;DHT22;26324;52.040;11.528;2023-02-11T15:06:55;8.40;85.40
40622;DHT22;26324;52.040;11.528;2023-02-11T15:09:36;8.40;85.10
40622;DHT22;26324;52.040;11.528;2023-02-11T15:12:06;8.40;84.90
40622;DHT22;26324;52.040;11.528;2023-02-11T15:14:39;8.40;85.40
40622;DHT22;26324;52.040;11.528;2023-02-11T15:17:14;8.30;85.50
40622;DHT22;26324;52.040;11.528;2023-02-11T15:19:47;8.30;85.30
40622;DHT22;26324;52.040;11.528;2023-02-11T15:22:22;8.30;85.50
40622;DHT22;26324;52.040;11.528;2023-02-11T15:25:10;8.30;85.60
40622;DHT22;26324;52.040;11.528;2023-02-11T15:27:49;8.20;85.60
40622;DHT22;26324;52.040;11.528;2023-02-11T15:32:49;8.30;85.40
40622;DHT22;26324;52.040;11.528;2023-02-11T15:35:17;8.30;85.60
40622;DHT22;26324;52.040;11.528;2023-02-11T15:37:45;8.30;85.40
40622;DHT22;26324;52.040;11.528;2023-02-11T15:40:20;8.40;85.40
40622;DHT22;26324;52.040;11.528;2023-02-11T15:45:25;8.20;85.80
40622;DHT22;26324;52.040;11.528;2023-02-11T15:48:18;8.20;85.80
40622;DHT22;26324;52.040;11.528;2023-02-11T15:50:54;8.20;85.90
40622;DHT22;26324;52.040;11.528;2023-02-11T15:53:31;8.20;86.10
40622;DHT22;26324;52.040;11.528;2023-02-11T15:56:19;8.20;86.20
40622;DHT22;26324;52.040;11.528;2023-02-11T15:58:54;8.20;86.20
40622;DHT22;26324;52.040;11.528;2023-02-11T16:01:34;8.20;86.30
40622;DHT22;26324;52.040;11.528;2023-02-11T16:04:02;8.20;86.50
40622;DHT22;26324;52.040;11.528;2023-02-11T16:06:38;8.20;86.40
40622;DHT22;26324;52.040;11.528;2023-02-11T16:17:08;8.00;87.10
40622;DHT22;26324;52.040;11.528;2023-02-11T16:19:43;8.00;87.00
40622;DHT22;26324;52.040;11.528;2023-02-11T16:22:22;8.10;87.00
40622;DHT22;26324;52.040;11.528;2023-02-11T16:24:52;8.00;87.30
40622;DHT22;26324;52.040;11.528;2023-02-11T16:27:23;8.10;86.90
40622;DHT22;26324;52.040;11.528;2023-02-11T16:29:51;8.10;86.80
40622;DHT22;26324;52.040;11.528;2023-02-11T16:32:24;8.10;86.60
40622;DHT22;26324;52.040;11.528;2023-02-11T16:34:54;8.10;86.90
40622;DHT22;26324;52.040;11.528;2023-02-11T16:37:21;8.20;86.70
40622;DHT22;26324;52.040;11.528;2023-02-11T16:39:49;8.10;86.70
40622;DHT22;26324;52.040;11.528;2023-02-11T16:42:19;8.20;86.80
40622;DHT22;26324;52.040;11.528;2023-02-11T16:44:46;8.20;86.50
40622;DHT22;26324;52.040;11.528;2023-02-11T16:47:27;8.10;86.70
40622;DHT22;26324;52.040;11.528;2023-02-11T16:49:55;8.10;87.00
40622;DHT22;26324;52.040;11.528;2023-02-11T16:52:23;8.00;87.20
40622;DHT22;26324;52.040;11.528;2023-02-11T16:54:58;8.10;87.30
40622;DHT22;26324;52.040;11.528;2023-02-11T16:57:25;8.10;87.30
40622;DHT22;26324;52.040;11.528;2023-02-11T16:59:56;8.00;87.20
40622;DHT22;26324;52.040;11.528;2023-02-11T17:02:28;8.00;87.30
40622;DHT22;26324;52.040;11.528;2023-02-11T17:04:59;8.00;87.50
40622;DHT22;26324;52.040;11.528;2023-02-11T17:07:27;8.00;87.40
40622;DHT22;26324;52.040;11.528;2023-02-11T17:09:55;8.00;87.50
40622;DHT22;26324;52.040;11.528;2023-02-11T17:12:23;8.00;87.30
40622;DHT22;26324;52.040;11.528;2023-02-11T17:14:53;8.00;87.40
40622;DHT22;26324;52.040;11.528;2023-02-11T17:17:20;8.00;87.50
40622;DHT22;26324;52.040;11.528;2023-02-11T17:19:49;7.90;87.50
40622;DHT22;26324;52.040;11.528;2023-02-11T17:22:21;7.90;87.80
40622;DHT22;26324;52.040;11.528;2023-02-11T17:24:48;7.90;87.90
40622;DHT22;26324;52.040;11.528;2023-02-11T17:27:16;7.90;87.90
40622;DHT22;26324;52.040;11.528;2023-02-11T17:29:43;7.90;87.90
40622;DHT22;26324;52.040;11.528;2023-02-11T17:32:10;8.00;87.70
40622;DHT22;26324;52.040;11.528;2023-02-11T17:34:37;8.00;87.40
40622;DHT22;26324;52.040;11.528;2023-02-11T17:37:05;8.00;87.60
40622;DHT22;26324;52.040;11.528;2023-02-11T17:39:36;8.00;87.50
40622;DHT22;26324;52.040;11.528;2023-02-11T17:42:04;7.90;88.00
40622;DHT22;26324;52.040;11.528;2023-02-11T17:44:32;7.90;88.10
40622;DHT22;26324;52.040;11.528;2023-02-11T17:47:00;7.90;88.10
40622;DHT22;26324;52.040;11.528;2023-02-11T17:49:30;8.00;88.20
40622;DHT22;26324;52.040;11.528;2023-02-11T17:51:58;7.90;88.30
40622;DHT22;26324;52.040;11.528;2023-02-11T17:54:27;7.90;88.30
40622;DHT22;26324;52.040;11.528;2023-02-11T17:56:54;7.80;88.70